sensor_id;sensor_type;location;lat;lon;timestamp;P1;durP1;ratioP1;P2;durP2;ratioP2
11771;SDS011;12556;55.748;13.194;2023-10-19T00:01:54;5.93;;;1.90;;
11771;SDS011;12556;55.748;13.194;2023-10-19T00:04:21;2.73;;;1.93;;
11771;SDS011;12556;55.748;13.194;2023-10-19T00:06:47;4.57;;;2.00;;
11771;SDS011;12556;55.748;13.194;2023-10-19T00:09:14;2.40;;;2.20;;
11771;SDS011;12556;55.748;13.194;2023-10-19T00:11:42;3.20;;;2.03;;
11771;SDS011;12556;55.748;13.194;2023-10-19T00:14:09;7.10;;;2.40;;
11771;SDS011;12556;55.748;13.194;2023-10-19T00:16:41;4.07;;;2.57;;
11771;SDS011;12556;55.748;13.194;2023-10-19T00:19:10;6.10;;;1.93;;
11771;SDS011;12556;55.748;13.194;2023-10-19T00:21:36;6.00;;;2.20;;
11771;SDS011;12556;55.748;13.194;2023-10-19T00:24:15;4.07;;;1.80;;
11771;SDS011;12556;55.748;13.194;2023-10-19T00:26:45;2.87;;;2.20;;
11771;SDS011;12556;55.748;13.194;2023-10-19T00:29:13;2.87;;;2.20;;
11771;SDS011;12556;55.748;13.194;2023-10-19T00:31:55;2.20;;;1.77;;
11771;SDS011;12556;55.748;13.194;2023-10-19T00:34:23;3.37;;;2.50;;
11771;SDS011;12556;55.748;13.194;2023-10-19T00:36:50;3.37;;;2.53;;
11771;SDS011;12556;55.748;13.194;2023-10-19T00:39:17;3.40;;;2.40;;
11771;SDS011;12556;55.748;13.194;2023-10-19T00:41:48;3.20;;;2.23;;
11771;SDS011;12556;55.748;13.194;2023-10-19T00:44:21;3.50;;;1.70;;
11771;SDS011;12556;55.748;13.194;2023-10-19T00:47:01;4.07;;;2.00;;
11771;SDS011;12556;55.748;13.194;2023-10-19T00:49:32;4.80;;;2.33;;
11771;SDS011;12556;55.748;13.194;2023-10-19T00:52:00;3.60;;;2.30;;
11771;SDS011;12556;55.748;13.194;2023-10-19T00:54:36;4.73;;;1.90;;
11771;SDS011;12556;55.748;13.194;2023-10-19T00:57:13;3.27;;;1.97;;
11771;SDS011;12556;55.748;13.194;2023-10-19T00:59:45;3.40;;;2.27;;
11771;SDS011;12556;55.748;13.194;2023-10-19T01:02:17;3.33;;;2.03;;
11771;SDS011;12556;55.748;13.194;2023-10-19T01:04:54;4.20;;;2.10;;
11771;SDS011;12556;55.748;13.194;2023-10-19T01:07:24;3.27;;;1.77;;
11771;SDS011;12556;55.748;13.194;2023-10-19T01:09:54;3.07;;;2.17;;
11771;SDS011;12556;55.748;13.194;2023-10-19T01:12:23;4.87;;;2.20;;
11771;SDS011;12556;55.748;13.194;2023-10-19T01:15:02;4.33;;;2.30;;
11771;SDS011;12556;55.748;13.194;2023-10-19T01:17:31;4.80;;;2.60;;
11771;SDS011;12556;55.748;13.194;2023-10-19T01:19:59;3.10;;;1.97;;
11771;SDS011;12556;55.748;13.194;2023-10-19T01:22:33;4.87;;;2.50;;
11771;SDS011;12556;55.748;13.194;2023-10-19T01:25:04;5.57;;;2.83;;
11771;SDS011;12556;55.748;13.194;2023-10-19T01:27:35;4.10;;;2.33;;
11771;SDS011;12556;55.748;13.194;2023-10-19T01:30:04;4.20;;;2.20;;
11771;SDS011;12556;55.748;13.194;2023-10-19T01:32:34;6.00;;;2.40;;
11771;SDS011;12556;55.748;13.194;2023-10-19T01:35:01;3.90;;;1.80;;
11771;SDS011;12556;55.748;13.194;2023-10-19T01:37:28;4.80;;;2.80;;
11771;SDS011;12556;55.748;13.194;2023-10-19T01:39:53;6.33;;;2.87;;
11771;SDS011;12556;55.748;13.194;2023-10-19T01:42:23;3.97;;;2.50;;
11771;SDS011;12556;55.748;13.194;2023-10-19T01:44:49;9.07;;;2.80;;
11771;SDS011;12556;55.748;13.194;2023-10-19T01:47:15;2.90;;;2.30;;
11771;SDS011;12556;55.748;13.194;2023-10-19T01:49:42;4.60;;;1.90;;
11771;SDS011;12556;55.748;13.194;2023-10-19T01:52:17;4.53;;;2.30;;
11771;SDS011;12556;55.748;13.194;2023-10-19T01:54:43;3.33;;;2.27;;
11771;SDS011;12556;55.748;13.194;2023-10-19T01:57:09;4.30;;;2.30;;
11771;SDS011;12556;55.748;13.194;2023-10-19T01:59:38;3.27;;;2.50;;
11771;SDS011;12556;55.748;13.194;2023-10-19T02:02:09;4.40;;;1.83;;
11771;SDS011;12556;55.748;13.194;2023-10-19T02:04:37;4.87;;;2.17;;
11771;SDS011;12556;55.748;13.194;2023-10-19T02:07:06;5.07;;;2.33;;
11771;SDS011;12556;55.748;13.194;2023-10-19T02:09:37;3.77;;;2.50;;
11771;SDS011;12556;55.748;13.194;2023-10-19T02:12:04;3.90;;;1.97;;
11771;SDS011;12556;55.748;13.194;2023-10-19T02:14:32;4.50;;;2.23;;
11771;SDS011;12556;55.748;13.194;2023-10-19T02:17:00;4.17;;;2.10;;
11771;SDS011;12556;55.748;13.194;2023-10-19T02:19:29;4.40;;;2.17;;
11771;SDS011;12556;55.748;13.194;2023-10-19T02:21:56;2.50;;;1.97;;
11771;SDS011;12556;55.748;13.194;2023-10-19T02:24:23;5.00;;;1.90;;
11771;SDS011;12556;55.748;13.194;2023-10-19T02:26:52;2.27;;;2.07;;
11771;SDS011;12556;55.748;13.194;2023-10-19T02:29:19;5.33;;;2.00;;
11771;SDS011;12556;55.748;13.194;2023-10-19T02:31:46;5.03;;;2.23;;
11771;SDS011;12556;55.748;13.194;2023-10-19T02:34:14;3.23;;;2.10;;
11771;SDS011;12556;55.748;13.194;2023-10-19T02:36:41;3.20;;;1.80;;
11771;SDS011;12556;55.748;13.194;2023-10-19T02:39:08;4.27;;;2.30;;
11771;SDS011;12556;55.748;13.194;2023-10-19T02:41:37;5.27;;;2.33;;
11771;SDS011;12556;55.748;13.194;2023-10-19T02:44:07;4.07;;;2.13;;
11771;SDS011;12556;55.748;13.194;2023-10-19T02:46:35;6.03;;;1.83;;
11771;SDS011;12556;55.748;13.194;2023-10-19T02:49:04;4.80;;;2.53;;
11771;SDS011;12556;55.748;13.194;2023-10-19T02:51:38;4.43;;;2.10;;
11771;SDS011;12556;55.748;13.194;2023-10-19T02:54:04;3.40;;;1.70;;
11771;SDS011;12556;55.748;13.194;2023-10-19T02:56:33;5.60;;;2.17;;
11771;SDS011;12556;55.748;13.194;2023-10-19T02:59:01;7.00;;;2.40;;
11771;SDS011;12556;55.748;13.194;2023-10-19T03:01:28;6.33;;;1.90;;
11771;SDS011;12556;55.748;13.194;2023-10-19T03:03:56;3.90;;;2.20;;
11771;SDS011;12556;55.748;13.194;2023-10-19T03:06:25;5.03;;;1.77;;
11771;SDS011;12556;55.748;13.194;2023-10-19T03:08:53;4.30;;;2.10;;
11771;SDS011;12556;55.748;13.194;2023-10-19T03:11:22;2.83;;;1.90;;
11771;SDS011;12556;55.748;13.194;2023-10-19T03:13:48;4.37;;;2.23;;
11771;SDS011;12556;55.748;13.194;2023-10-19T03:16:17;4.70;;;2.50;;
11771;SDS011;12556;55.748;13.194;2023-10-19T03:18:44;6.17;;;2.37;;
11771;SDS011;12556;55.748;13.194;2023-10-19T03:21:11;3.40;;;1.90;;
11771;SDS011;12556;55.748;13.194;2023-10-19T03:23:37;4.17;;;1.97;;
11771;SDS011;12556;55.748;13.194;2023-10-19T03:26:07;3.77;;;1.80;;
11771;SDS011;12556;55.748;13.194;2023-10-19T03:28:52;8.33;;;2.27;;
11771;SDS011;12556;55.748;13.194;2023-10-19T03:31:21;2.57;;;1.80;;
11771;SDS011;12556;55.748;13.194;2023-10-19T03:33:50;3.77;;;1.63;;
11771;SDS011;12556;55.748;13.194;2023-10-19T03:36:20;1.77;;;1.67;;
11771;SDS011;12556;55.748;13.194;2023-10-19T03:38:48;6.60;;;2.20;;
11771;SDS011;12556;55.748;13.194;2023-10-19T03:41:17;3.30;;;2.27;;
11771;SDS011;12556;55.748;13.194;2023-10-19T03:43:47;3.60;;;2.00;;
11771;SDS011;12556;55.748;13.194;2023-10-19T03:46:16;5.07;;;2.10;;
11771;SDS011;12556;55.748;13.194;2023-10-19T03:48:53;3.87;;;2.10;;
11771;SDS011;12556;55.748;13.194;2023-10-19T03:51:23;3.47;;;1.80;;
11771;SDS011;12556;55.748;13.194;2023-10-19T03:53:51;4.30;;;2.13;;
11771;SDS011;12556;55.748;13.194;2023-10-19T03:56:21;5.90;;;2.33;;
11771;SDS011;12556;55.748;13.194;2023-10-19T03:58:49;3.47;;;2.23;;
11771;SDS011;12556;55.748;13.194;2023-10-19T04:01:16;9.83;;;2.33;;
11771;SDS011;12556;55.748;13.194;2023-10-19T04:03:44;3.07;;;2.10;;
11771;SDS011;12556;55.748;13.194;2023-10-19T04:06:11;3.60;;;1.90;;
11771;SDS011;12556;55.748;13.194;2023-10-19T04:08:40;4.53;;;2.03;;
11771;SDS011;12556;55.748;13.194;2023-10-19T04:11:07;4.70;;;2.17;;
11771;SDS011;12556;55.748;13.194;2023-10-19T04:13:38;4.00;;;2.23;;
11771;SDS011;12556;55.748;13.194;2023-10-19T04:16:04;3.93;;;2.33;;
11771;SDS011;12556;55.748;13.194;2023-10-19T04:18:35;4.23;;;1.97;;
11771;SDS011;12556;55.748;13.194;2023-10-19T04:21:08;6.10;;;2.17;;
11771;SDS011;12556;55.748;13.194;2023-10-19T04:23:35;3.00;;;1.93;;
11771;SDS011;12556;55.748;13.194;2023-10-19T04:26:02;3.60;;;2.13;;
11771;SDS011;12556;55.748;13.194;2023-10-19T04:28:37;2.40;;;2.10;;
11771;SDS011;12556;55.748;13.194;2023-10-19T04:31:10;3.93;;;2.27;;
11771;SDS011;12556;55.748;13.194;2023-10-19T04:33:40;6.07;;;1.80;;
11771;SDS011;12556;55.748;13.194;2023-10-19T04:36:10;4.83;;;2.07;;
11771;SDS011;12556;55.748;13.194;2023-10-19T04:38:39;2.93;;;1.70;;
11771;SDS011;12556;55.748;13.194;2023-10-19T04:41:06;2.63;;;1.70;;
11771;SDS011;12556;55.748;13.194;2023-10-19T04:43:33;5.13;;;1.63;;
11771;SDS011;12556;55.748;13.194;2023-10-19T04:46:06;2.43;;;1.93;;
11771;SDS011;12556;55.748;13.194;2023-10-19T04:48:36;3.10;;;2.10;;
11771;SDS011;12556;55.748;13.194;2023-10-19T04:51:04;2.83;;;1.60;;
11771;SDS011;12556;55.748;13.194;2023-10-19T04:53:32;2.10;;;1.57;;
11771;SDS011;12556;55.748;13.194;2023-10-19T04:55:59;2.77;;;1.80;;
11771;SDS011;12556;55.748;13.194;2023-10-19T04:58:26;2.90;;;1.83;;
11771;SDS011;12556;55.748;13.194;2023-10-19T05:00:54;4.00;;;1.80;;
11771;SDS011;12556;55.748;13.194;2023-10-19T05:03:22;3.33;;;1.77;;
11771;SDS011;12556;55.748;13.194;2023-10-19T05:05:49;2.63;;;1.97;;
11771;SDS011;12556;55.748;13.194;2023-10-19T05:08:16;2.60;;;1.97;;
11771;SDS011;12556;55.748;13.194;2023-10-19T05:10:43;4.37;;;2.10;;
11771;SDS011;12556;55.748;13.194;2023-10-19T05:13:10;4.77;;;2.00;;
11771;SDS011;12556;55.748;13.194;2023-10-19T05:15:37;5.43;;;1.93;;
11771;SDS011;12556;55.748;13.194;2023-10-19T05:18:04;4.33;;;2.17;;
11771;SDS011;12556;55.748;13.194;2023-10-19T05:20:32;4.87;;;1.90;;
11771;SDS011;12556;55.748;13.194;2023-10-19T05:22:59;5.60;;;2.07;;
11771;SDS011;12556;55.748;13.194;2023-10-19T05:25:26;4.67;;;2.17;;
11771;SDS011;12556;55.748;13.194;2023-10-19T05:27:53;3.93;;;2.10;;
11771;SDS011;12556;55.748;13.194;2023-10-19T05:30:20;5.70;;;1.83;;
11771;SDS011;12556;55.748;13.194;2023-10-19T05:32:48;3.37;;;1.97;;
11771;SDS011;12556;55.748;13.194;2023-10-19T05:35:15;6.13;;;2.27;;
11771;SDS011;12556;55.748;13.194;2023-10-19T05:37:49;2.87;;;1.93;;
11771;SDS011;12556;55.748;13.194;2023-10-19T05:40:16;3.80;;;1.80;;
11771;SDS011;12556;55.748;13.194;2023-10-19T05:42:44;4.20;;;2.00;;
11771;SDS011;12556;55.748;13.194;2023-10-19T05:45:11;3.67;;;2.17;;
11771;SDS011;12556;55.748;13.194;2023-10-19T05:47:41;3.97;;;2.20;;
11771;SDS011;12556;55.748;13.194;2023-10-19T05:50:08;3.17;;;2.17;;
11771;SDS011;12556;55.748;13.194;2023-10-19T05:52:39;3.97;;;1.70;;
11771;SDS011;12556;55.748;13.194;2023-10-19T05:55:08;5.50;;;1.93;;
11771;SDS011;12556;55.748;13.194;2023-10-19T05:57:36;3.57;;;2.03;;
11771;SDS011;12556;55.748;13.194;2023-10-19T06:00:06;3.03;;;1.83;;
11771;SDS011;12556;55.748;13.194;2023-10-19T06:02:37;2.40;;;1.50;;
11771;SDS011;12556;55.748;13.194;2023-10-19T06:05:05;4.67;;;2.40;;
11771;SDS011;12556;55.748;13.194;2023-10-19T06:07:32;2.83;;;2.13;;
11771;SDS011;12556;55.748;13.194;2023-10-19T06:09:59;2.27;;;1.90;;
11771;SDS011;12556;55.748;13.194;2023-10-19T06:12:30;3.03;;;1.80;;
11771;SDS011;12556;55.748;13.194;2023-10-19T06:14:58;2.20;;;1.83;;
11771;SDS011;12556;55.748;13.194;2023-10-19T06:17:25;4.10;;;1.73;;
11771;SDS011;12556;55.748;13.194;2023-10-19T06:19:53;5.20;;;2.37;;
11771;SDS011;12556;55.748;13.194;2023-10-19T06:22:21;4.53;;;2.20;;
11771;SDS011;12556;55.748;13.194;2023-10-19T06:24:48;4.33;;;1.90;;
11771;SDS011;12556;55.748;13.194;2023-10-19T06:27:15;5.93;;;2.87;;
11771;SDS011;12556;55.748;13.194;2023-10-19T06:29:43;3.53;;;2.23;;
11771;SDS011;12556;55.748;13.194;2023-10-19T06:32:10;6.77;;;2.53;;
11771;SDS011;12556;55.748;13.194;2023-10-19T06:34:38;6.20;;;2.47;;
11771;SDS011;12556;55.748;13.194;2023-10-19T06:37:05;4.83;;;2.20;;
11771;SDS011;12556;55.748;13.194;2023-10-19T06:39:35;4.47;;;2.00;;
11771;SDS011;12556;55.748;13.194;2023-10-19T06:42:06;6.60;;;2.93;;
11771;SDS011;12556;55.748;13.194;2023-10-19T06:44:35;4.00;;;2.63;;
11771;SDS011;12556;55.748;13.194;2023-10-19T06:47:04;6.23;;;2.73;;
11771;SDS011;12556;55.748;13.194;2023-10-19T06:49:32;3.80;;;2.50;;
11771;SDS011;12556;55.748;13.194;2023-10-19T06:51:59;4.53;;;2.20;;
11771;SDS011;12556;55.748;13.194;2023-10-19T06:54:26;2.40;;;2.00;;
11771;SDS011;12556;55.748;13.194;2023-10-19T06:56:54;3.93;;;2.07;;
11771;SDS011;12556;55.748;13.194;2023-10-19T06:59:21;4.13;;;2.57;;
11771;SDS011;12556;55.748;13.194;2023-10-19T07:01:49;5.27;;;2.10;;
11771;SDS011;12556;55.748;13.194;2023-10-19T07:04:17;2.93;;;1.90;;
11771;SDS011;12556;55.748;13.194;2023-10-19T07:06:44;3.77;;;2.20;;
11771;SDS011;12556;55.748;13.194;2023-10-19T07:09:12;4.37;;;2.60;;
11771;SDS011;12556;55.748;13.194;2023-10-19T07:11:40;4.80;;;2.00;;
11771;SDS011;12556;55.748;13.194;2023-10-19T07:14:09;3.17;;;1.80;;
11771;SDS011;12556;55.748;13.194;2023-10-19T07:16:38;2.93;;;1.90;;
11771;SDS011;12556;55.748;13.194;2023-10-19T07:19:05;5.20;;;1.87;;
11771;SDS011;12556;55.748;13.194;2023-10-19T07:21:35;4.00;;;2.30;;
11771;SDS011;12556;55.748;13.194;2023-10-19T07:24:03;2.73;;;1.67;;
11771;SDS011;12556;55.748;13.194;2023-10-19T07:26:34;3.60;;;1.93;;
11771;SDS011;12556;55.748;13.194;2023-10-19T07:29:08;2.73;;;1.83;;
11771;SDS011;12556;55.748;13.194;2023-10-19T07:31:35;2.50;;;1.83;;
11771;SDS011;12556;55.748;13.194;2023-10-19T07:34:02;5.70;;;2.00;;
11771;SDS011;12556;55.748;13.194;2023-10-19T07:36:29;5.27;;;1.93;;
11771;SDS011;12556;55.748;13.194;2023-10-19T07:38:57;3.13;;;2.20;;
11771;SDS011;12556;55.748;13.194;2023-10-19T07:41:24;2.67;;;1.43;;
11771;SDS011;12556;55.748;13.194;2023-10-19T07:43:51;2.50;;;1.50;;
11771;SDS011;12556;55.748;13.194;2023-10-19T07:46:18;3.33;;;1.90;;
11771;SDS011;12556;55.748;13.194;2023-10-19T07:48:46;3.67;;;2.00;;
11771;SDS011;12556;55.748;13.194;2023-10-19T07:51:13;4.57;;;2.20;;
11771;SDS011;12556;55.748;13.194;2023-10-19T07:53:41;4.57;;;2.00;;
11771;SDS011;12556;55.748;13.194;2023-10-19T07:56:09;3.97;;;1.87;;
11771;SDS011;12556;55.748;13.194;2023-10-19T07:58:36;1.50;;;1.40;;
11771;SDS011;12556;55.748;13.194;2023-10-19T08:01:04;2.10;;;1.60;;
11771;SDS011;12556;55.748;13.194;2023-10-19T08:03:31;3.23;;;2.10;;
11771;SDS011;12556;55.748;13.194;2023-10-19T08:05:58;7.97;;;1.93;;
11771;SDS011;12556;55.748;13.194;2023-10-19T08:08:25;5.33;;;1.73;;
11771;SDS011;12556;55.748;13.194;2023-10-19T08:10:58;1.67;;;1.17;;
11771;SDS011;12556;55.748;13.194;2023-10-19T08:13:27;2.40;;;1.33;;
11771;SDS011;12556;55.748;13.194;2023-10-19T08:15:53;3.03;;;1.70;;
11771;SDS011;12556;55.748;13.194;2023-10-19T08:18:21;3.53;;;1.47;;
11771;SDS011;12556;55.748;13.194;2023-10-19T08:20:48;4.50;;;1.80;;
11771;SDS011;12556;55.748;13.194;2023-10-19T08:23:16;3.90;;;1.60;;
11771;SDS011;12556;55.748;13.194;2023-10-19T08:25:48;4.63;;;1.80;;
11771;SDS011;12556;55.748;13.194;2023-10-19T08:28:16;2.60;;;1.80;;
11771;SDS011;12556;55.748;13.194;2023-10-19T08:30:44;3.10;;;1.80;;
11771;SDS011;12556;55.748;13.194;2023-10-19T08:33:21;3.70;;;1.83;;
11771;SDS011;12556;55.748;13.194;2023-10-19T08:35:50;3.20;;;1.60;;
11771;SDS011;12556;55.748;13.194;2023-10-19T08:38:18;4.60;;;1.90;;
11771;SDS011;12556;55.748;13.194;2023-10-19T08:40:45;3.87;;;2.00;;
11771;SDS011;12556;55.748;13.194;2023-10-19T08:43:13;2.90;;;1.33;;
11771;SDS011;12556;55.748;13.194;2023-10-19T08:45:44;3.23;;;1.67;;
11771;SDS011;12556;55.748;13.194;2023-10-19T08:48:11;3.97;;;1.60;;
11771;SDS011;12556;55.748;13.194;2023-10-19T08:50:40;2.90;;;1.50;;
11771;SDS011;12556;55.748;13.194;2023-10-19T08:53:08;3.00;;;1.83;;
11771;SDS011;12556;55.748;13.194;2023-10-19T08:55:38;2.73;;;1.33;;
11771;SDS011;12556;55.748;13.194;2023-10-19T08:58:05;3.07;;;1.50;;
11771;SDS011;12556;55.748;13.194;2023-10-19T09:00:42;6.20;;;1.83;;
11771;SDS011;12556;55.748;13.194;2023-10-19T09:03:13;2.03;;;1.30;;
11771;SDS011;12556;55.748;13.194;2023-10-19T09:05:42;2.70;;;1.90;;
11771;SDS011;12556;55.748;13.194;2023-10-19T09:08:13;2.17;;;1.60;;
11771;SDS011;12556;55.748;13.194;2023-10-19T09:10:42;2.40;;;1.47;;
11771;SDS011;12556;55.748;13.194;2023-10-19T09:13:10;3.83;;;1.50;;
11771;SDS011;12556;55.748;13.194;2023-10-19T09:15:40;2.70;;;1.50;;
11771;SDS011;12556;55.748;13.194;2023-10-19T09:18:16;2.67;;;1.60;;
11771;SDS011;12556;55.748;13.194;2023-10-19T09:20:44;1.97;;;1.70;;
11771;SDS011;12556;55.748;13.194;2023-10-19T09:23:19;2.47;;;1.67;;
11771;SDS011;12556;55.748;13.194;2023-10-19T09:25:47;3.47;;;1.77;;
11771;SDS011;12556;55.748;13.194;2023-10-19T09:28:15;2.93;;;1.77;;
11771;SDS011;12556;55.748;13.194;2023-10-19T09:30:42;3.30;;;1.70;;
11771;SDS011;12556;55.748;13.194;2023-10-19T09:33:09;2.17;;;1.80;;
11771;SDS011;12556;55.748;13.194;2023-10-19T09:35:40;2.73;;;1.80;;
11771;SDS011;12556;55.748;13.194;2023-10-19T09:38:08;2.23;;;1.60;;
11771;SDS011;12556;55.748;13.194;2023-10-19T09:40:35;4.57;;;1.60;;
11771;SDS011;12556;55.748;13.194;2023-10-19T09:43:04;3.90;;;1.93;;
11771;SDS011;12556;55.748;13.194;2023-10-19T09:45:35;2.23;;;1.70;;
11771;SDS011;12556;55.748;13.194;2023-10-19T09:48:06;2.43;;;1.67;;
11771;SDS011;12556;55.748;13.194;2023-10-19T09:50:43;3.70;;;1.60;;
11771;SDS011;12556;55.748;13.194;2023-10-19T09:53:13;2.07;;;1.47;;
11771;SDS011;12556;55.748;13.194;2023-10-19T09:55:40;2.87;;;1.70;;
11771;SDS011;12556;55.748;13.194;2023-10-19T09:58:09;3.37;;;1.83;;
11771;SDS011;12556;55.748;13.194;2023-10-19T10:00:42;1.60;;;1.40;;
11771;SDS011;12556;55.748;13.194;2023-10-19T10:06:09;2.10;;;1.20;;
11771;SDS011;12556;55.748;13.194;2023-10-19T10:08:39;2.70;;;1.17;;
11771;SDS011;12556;55.748;13.194;2023-10-19T10:11:14;3.33;;;1.40;;
11771;SDS011;12556;55.748;13.194;2023-10-19T10:13:43;3.00;;;1.30;;
11771;SDS011;12556;55.748;13.194;2023-10-19T10:16:12;2.03;;;1.30;;
11771;SDS011;12556;55.748;13.194;2023-10-19T10:18:41;1.93;;;1.10;;
11771;SDS011;12556;55.748;13.194;2023-10-19T10:21:11;3.47;;;1.23;;
11771;SDS011;12556;55.748;13.194;2023-10-19T10:23:41;3.87;;;1.70;;
11771;SDS011;12556;55.748;13.194;2023-10-19T10:26:09;2.63;;;1.37;;
11771;SDS011;12556;55.748;13.194;2023-10-19T10:28:38;1.80;;;1.47;;
11771;SDS011;12556;55.748;13.194;2023-10-19T10:31:08;3.13;;;1.43;;
11771;SDS011;12556;55.748;13.194;2023-10-19T10:33:38;5.83;;;1.50;;
11771;SDS011;12556;55.748;13.194;2023-10-19T10:36:17;2.03;;;1.40;;
11771;SDS011;12556;55.748;13.194;2023-10-19T10:38:45;2.60;;;1.17;;
11771;SDS011;12556;55.748;13.194;2023-10-19T10:41:19;3.53;;;1.17;;
11771;SDS011;12556;55.748;13.194;2023-10-19T10:43:49;4.47;;;1.40;;
11771;SDS011;12556;55.748;13.194;2023-10-19T10:46:19;1.47;;;1.20;;
11771;SDS011;12556;55.748;13.194;2023-10-19T10:48:46;3.00;;;1.20;;
11771;SDS011;12556;55.748;13.194;2023-10-19T10:51:14;1.83;;;1.13;;
11771;SDS011;12556;55.748;13.194;2023-10-19T10:53:45;2.87;;;1.20;;
11771;SDS011;12556;55.748;13.194;2023-10-19T10:56:13;4.17;;;1.40;;
11771;SDS011;12556;55.748;13.194;2023-10-19T10:58:40;1.37;;;1.23;;
11771;SDS011;12556;55.748;13.194;2023-10-19T11:01:07;2.47;;;1.47;;
11771;SDS011;12556;55.748;13.194;2023-10-19T11:03:35;2.00;;;1.10;;
11771;SDS011;12556;55.748;13.194;2023-10-19T11:06:03;3.17;;;1.20;;
11771;SDS011;12556;55.748;13.194;2023-10-19T11:08:34;2.93;;;1.70;;
11771;SDS011;12556;55.748;13.194;2023-10-19T11:11:02;1.20;;;1.10;;
11771;SDS011;12556;55.748;13.194;2023-10-19T11:13:30;1.60;;;1.10;;
11771;SDS011;12556;55.748;13.194;2023-10-19T11:16:00;1.73;;;1.20;;
11771;SDS011;12556;55.748;13.194;2023-10-19T11:18:31;1.50;;;1.10;;
11771;SDS011;12556;55.748;13.194;2023-10-19T11:21:00;1.73;;;1.50;;
11771;SDS011;12556;55.748;13.194;2023-10-19T11:23:43;1.03;;;1.00;;
11771;SDS011;12556;55.748;13.194;2023-10-19T11:26:12;2.37;;;1.10;;
11771;SDS011;12556;55.748;13.194;2023-10-19T11:28:39;2.60;;;1.53;;
11771;SDS011;12556;55.748;13.194;2023-10-19T11:31:17;2.33;;;1.37;;
11771;SDS011;12556;55.748;13.194;2023-10-19T11:33:45;2.73;;;1.20;;
11771;SDS011;12556;55.748;13.194;2023-10-19T11:36:14;1.10;;;1.00;;
11771;SDS011;12556;55.748;13.194;2023-10-19T11:38:44;2.33;;;1.07;;
11771;SDS011;12556;55.748;13.194;2023-10-19T11:41:12;2.80;;;1.20;;
11771;SDS011;12556;55.748;13.194;2023-10-19T11:43:40;3.73;;;1.40;;
11771;SDS011;12556;55.748;13.194;2023-10-19T11:46:08;1.23;;;0.83;;
11771;SDS011;12556;55.748;13.194;2023-10-19T11:48:36;2.63;;;1.53;;
11771;SDS011;12556;55.748;13.194;2023-10-19T11:51:05;4.70;;;1.20;;
11771;SDS011;12556;55.748;13.194;2023-10-19T11:53:32;2.03;;;1.13;;
11771;SDS011;12556;55.748;13.194;2023-10-19T11:56:03;1.97;;;1.10;;
11771;SDS011;12556;55.748;13.194;2023-10-19T11:58:31;1.70;;;1.00;;
11771;SDS011;12556;55.748;13.194;2023-10-19T12:00:59;1.93;;;0.80;;
11771;SDS011;12556;55.748;13.194;2023-10-19T12:03:26;2.70;;;1.33;;
11771;SDS011;12556;55.748;13.194;2023-10-19T12:05:53;1.20;;;1.10;;
11771;SDS011;12556;55.748;13.194;2023-10-19T12:08:21;2.03;;;1.13;;
11771;SDS011;12556;55.748;13.194;2023-10-19T12:10:49;2.07;;;1.37;;
11771;SDS011;12556;55.748;13.194;2023-10-19T12:13:18;4.73;;;1.40;;
11771;SDS011;12556;55.748;13.194;2023-10-19T12:15:45;4.13;;;1.30;;
11771;SDS011;12556;55.748;13.194;2023-10-19T12:18:18;1.67;;;1.10;;
11771;SDS011;12556;55.748;13.194;2023-10-19T12:20:45;2.33;;;1.07;;
11771;SDS011;12556;55.748;13.194;2023-10-19T12:23:12;2.73;;;1.40;;
11771;SDS011;12556;55.748;13.194;2023-10-19T12:25:39;2.50;;;0.90;;
11771;SDS011;12556;55.748;13.194;2023-10-19T12:28:07;2.73;;;1.23;;
11771;SDS011;12556;55.748;13.194;2023-10-19T12:30:40;1.20;;;1.10;;
11771;SDS011;12556;55.748;13.194;2023-10-19T12:33:07;2.83;;;0.97;;
11771;SDS011;12556;55.748;13.194;2023-10-19T12:35:37;2.17;;;1.23;;
11771;SDS011;12556;55.748;13.194;2023-10-19T12:38:21;1.83;;;1.10;;
11771;SDS011;12556;55.748;13.194;2023-10-19T12:40:48;1.30;;;1.03;;
11771;SDS011;12556;55.748;13.194;2023-10-19T12:43:16;2.60;;;1.13;;
11771;SDS011;12556;55.748;13.194;2023-10-19T12:45:45;1.87;;;1.20;;
11771;SDS011;12556;55.748;13.194;2023-10-19T12:48:18;1.33;;;1.03;;
11771;SDS011;12556;55.748;13.194;2023-10-19T12:50:46;2.03;;;1.00;;
11771;SDS011;12556;55.748;13.194;2023-10-19T12:53:13;1.63;;;1.07;;
11771;SDS011;12556;55.748;13.194;2023-10-19T12:55:40;1.80;;;1.00;;
11771;SDS011;12556;55.748;13.194;2023-10-19T12:58:08;4.37;;;1.10;;
11771;SDS011;12556;55.748;13.194;2023-10-19T13:00:36;1.23;;;1.10;;
11771;SDS011;12556;55.748;13.194;2023-10-19T13:03:10;2.77;;;0.90;;
11771;SDS011;12556;55.748;13.194;2023-10-19T13:05:41;2.00;;;0.80;;
11771;SDS011;12556;55.748;13.194;2023-10-19T13:08:09;2.53;;;1.03;;
11771;SDS011;12556;55.748;13.194;2023-10-19T13:10:39;1.07;;;1.03;;
11771;SDS011;12556;55.748;13.194;2023-10-19T13:13:08;0.93;;;0.80;;
11771;SDS011;12556;55.748;13.194;2023-10-19T13:15:38;0.83;;;0.77;;
11771;SDS011;12556;55.748;13.194;2023-10-19T13:18:07;3.50;;;1.13;;
11771;SDS011;12556;55.748;13.194;2023-10-19T13:20:36;1.83;;;0.90;;
11771;SDS011;12556;55.748;13.194;2023-10-19T13:23:04;1.13;;;1.03;;
11771;SDS011;12556;55.748;13.194;2023-10-19T13:25:32;1.03;;;0.80;;
11771;SDS011;12556;55.748;13.194;2023-10-19T13:28:11;1.83;;;0.70;;
11771;SDS011;12556;55.748;13.194;2023-10-19T13:30:39;0.80;;;0.80;;
11771;SDS011;12556;55.748;13.194;2023-10-19T13:33:07;4.13;;;1.00;;
11771;SDS011;12556;55.748;13.194;2023-10-19T13:35:38;0.80;;;0.80;;
11771;SDS011;12556;55.748;13.194;2023-10-19T13:38:06;2.70;;;0.80;;
11771;SDS011;12556;55.748;13.194;2023-10-19T13:40:34;2.73;;;0.90;;
11771;SDS011;12556;55.748;13.194;2023-10-19T13:43:01;2.70;;;1.10;;
11771;SDS011;12556;55.748;13.194;2023-10-19T13:45:31;0.93;;;0.83;;
11771;SDS011;12556;55.748;13.194;2023-10-19T13:47:59;1.67;;;1.00;;
11771;SDS011;12556;55.748;13.194;2023-10-19T13:50:27;1.90;;;0.90;;
11771;SDS011;12556;55.748;13.194;2023-10-19T13:52:56;1.03;;;0.70;;
11771;SDS011;12556;55.748;13.194;2023-10-19T13:55:25;1.37;;;0.80;;
11771;SDS011;12556;55.748;13.194;2023-10-19T13:57:53;1.50;;;0.80;;
11771;SDS011;12556;55.748;13.194;2023-10-19T14:00:21;2.03;;;0.80;;
11771;SDS011;12556;55.748;13.194;2023-10-19T14:02:55;1.60;;;1.00;;
11771;SDS011;12556;55.748;13.194;2023-10-19T14:05:24;1.70;;;0.90;;
11771;SDS011;12556;55.748;13.194;2023-10-19T14:07:51;0.73;;;0.67;;
11771;SDS011;12556;55.748;13.194;2023-10-19T14:10:19;4.90;;;0.90;;
11771;SDS011;12556;55.748;13.194;2023-10-19T14:12:49;0.60;;;0.60;;
11771;SDS011;12556;55.748;13.194;2023-10-19T14:15:17;3.07;;;0.80;;
11771;SDS011;12556;55.748;13.194;2023-10-19T14:17:45;2.10;;;0.90;;
11771;SDS011;12556;55.748;13.194;2023-10-19T14:20:13;1.27;;;0.90;;
11771;SDS011;12556;55.748;13.194;2023-10-19T14:22:40;2.27;;;1.13;;
11771;SDS011;12556;55.748;13.194;2023-10-19T14:25:08;1.30;;;0.93;;
11771;SDS011;12556;55.748;13.194;2023-10-19T14:27:39;1.43;;;0.50;;
11771;SDS011;12556;55.748;13.194;2023-10-19T14:30:07;2.10;;;0.80;;
11771;SDS011;12556;55.748;13.194;2023-10-19T14:32:36;1.60;;;0.80;;
11771;SDS011;12556;55.748;13.194;2023-10-19T14:35:03;2.10;;;0.73;;
11771;SDS011;12556;55.748;13.194;2023-10-19T14:37:34;2.20;;;0.77;;
11771;SDS011;12556;55.748;13.194;2023-10-19T14:40:03;1.17;;;0.80;;
11771;SDS011;12556;55.748;13.194;2023-10-19T14:42:34;1.37;;;1.17;;
11771;SDS011;12556;55.748;13.194;2023-10-19T14:45:03;1.27;;;0.80;;
11771;SDS011;12556;55.748;13.194;2023-10-19T14:47:34;0.67;;;0.67;;